Time;durP1;ratioP1;P1;durP2;ratioP2;P2;SDS_P1;SDS_P2;PMS_P1;PMS_P2;Temp;Humidity;BMP_temperature;BMP_pressure;BME280_temperature;BME280_humidity;BME280_pressure;Samples;Min_cycle;Max_cycle;Signal;HPM_P1;HPM_P2
2022/11/06 00:01:13;;;;;;;9.50;6.70;;;10.20;99.90;;;;;;5028405;28;20045;-69
2022/11/06 00:03:39;;;;;;;12.23;6.70;;;10.20;99.90;;;;;;5032196;28;20475;-69
2022/11/06 00:08:54;;;;;;;13.07;7.50;;;10.20;99.90;;;;;;5027028;28;20045;-69
2022/11/06 00:11:21;;;;;;;11.52;7.07;;;10.20;99.90;;;;;;5029267;28;20554;-69
2022/11/06 00:13:46;;;;;;;13.52;6.88;;;10.20;99.90;;;;;;5031123;28;20072;-69
2022/11/06 00:16:13;;;;;;;11.50;6.68;;;10.20;99.90;;;;;;5029374;28;20076;-69
2022/11/06 00:18:39;;;;;;;11.65;7.20;;;10.20;99.90;;;;;;5031487;28;20034;-69
2022/11/06 00:21:16;;;;;;;15.18;6.68;;;10.20;99.90;;;;;;5031637;28;20038;-69
2022/11/06 00:23:43;;;;;;;11.65;6.57;;;10.20;99.90;;;;;;5024147;28;20041;-69
2022/11/06 00:26:12;;;;;;;10.90;6.18;;;10.20;99.90;;;;;;5030343;28;20033;-69
2022/11/06 00:28:38;;;;;;;11.55;6.95;;;10.00;99.90;;;;;;5030390;28;20052;-69
2022/11/06 00:31:09;;;;;;;11.07;6.78;;;10.10;99.90;;;;;;5031104;28;20403;-69
2022/11/06 00:33:34;;;;;;;;;;;10.10;99.90;;;;;;5027008;28;20492;-69
2022/11/06 00:36:09;;;;;;;12.40;7.20;;;10.10;99.90;;;;;;5030377;28;19974;-69
2022/11/06 00:38:35;;;;;;;11.35;6.70;;;10.10;99.90;;;;;;5027897;28;20490;-69
2022/11/06 00:41:03;;;;;;;14.45;6.68;;;10.10;99.90;;;;;;5030994;28;20025;-69
2022/11/06 00:43:28;;;;;;;10.95;7.68;;;10.10;99.90;;;;;;5030295;28;20030;-69
2022/11/06 00:46:01;;;;;;;10.52;6.63;;;10.10;99.90;;;;;;5031333;28;20060;-69
2022/11/06 00:48:26;;;;;;;14.27;7.93;;;10.10;99.90;;;;;;5028274;28;20563;-70
2022/11/06 00:50:52;;;;;;;11.32;7.25;;;10.10;99.90;;;;;;5030757;28;20084;-69
2022/11/06 00:53:18;;;;;;;11.15;6.95;;;10.10;99.90;;;;;;5030375;28;20041;-70
2022/11/06 00:55:43;;;;;;;17.92;7.85;;;10.10;99.90;;;;;;5030028;28;20622;-69
2022/11/06 00:58:09;;;;;;;11.70;6.78;;;10.10;99.90;;;;;;5031713;28;20126;-69
2022/11/06 01:00:34;;;;;;;13.48;7.07;;;10.10;99.90;;;;;;5031086;28;20435;-69
2022/11/06 01:03:00;;;;;;;11.80;7.50;;;10.10;99.90;;;;;;5029358;28;20037;-69
2022/11/06 01:05:25;;;;;;;11.40;6.50;;;10.10;99.90;;;;;;5029426;28;20153;-69
2022/11/06 01:07:51;;;;;;;14.18;7.00;;;10.10;99.90;;;;;;5031318;28;20095;-69
2022/11/06 01:10:17;;;;;;;11.20;6.40;;;10.10;99.90;;;;;;5029891;28;20411;-70
2022/11/06 01:12:42;;;;;;;12.57;6.32;;;10.10;99.90;;;;;;5028338;28;20116;-69
2022/11/06 01:15:08;;;;;;;13.15;7.22;;;10.10;99.90;;;;;;5031074;28;20465;-70
2022/11/06 01:17:34;;;;;;;11.05;6.60;;;10.00;99.90;;;;;;5028599;28;20037;-69
2022/11/06 01:20:00;;;;;;;11.23;7.15;;;10.10;99.90;;;;;;5029860;28;20045;-70
2022/11/06 01:22:25;;;;;;;13.85;6.90;;;10.10;99.90;;;;;;5028961;28;20071;-70
2022/11/06 01:24:51;;;;;;;13.65;7.10;;;10.10;99.90;;;;;;5030131;28;20060;-69
2022/11/06 01:27:16;;;;;;;10.45;6.47;;;10.10;99.90;;;;;;5029155;28;20463;-70
2022/11/06 01:29:42;;;;;;;15.52;6.50;;;10.10;99.90;;;;;;5030183;28;20029;-69
2022/11/06 01:32:09;;;;;;;12.27;6.97;;;10.10;99.90;;;;;;5028928;28;20178;-69
2022/11/06 01:34:35;;;;;;;13.73;7.15;;;10.10;99.90;;;;;;5031735;28;20040;-69
2022/11/06 01:37:00;;;;;;;12.38;6.45;;;10.10;99.90;;;;;;5029090;28;20037;-69
2022/11/06 01:39:26;;;;;;;10.93;6.57;;;10.10;99.90;;;;;;5029273;28;20033;-69
2022/11/06 01:41:52;;;;;;;14.48;6.97;;;10.10;99.90;;;;;;5028942;28;20112;-69
2022/11/06 01:44:30;;;;;;;13.75;7.45;;;10.00;99.90;;;;;;5019965;28;20069;-69
2022/11/06 01:46:56;;;;;;;9.98;6.32;;;10.00;99.90;;;;;;5025563;28;20041;-69
2022/11/06 01:49:23;;;;;;;12.82;7.13;;;10.00;99.90;;;;;;5030495;28;20045;-69
2022/11/06 01:51:59;;;;;;;11.18;6.60;;;10.00;99.90;;;;;;5030714;28;20551;-69
2022/11/06 01:54:28;;;;;;;12.23;6.28;;;10.00;99.90;;;;;;5029333;28;20059;-69
2022/11/06 01:56:56;;;;;;;13.13;7.25;;;10.00;99.90;;;;;;5029159;28;20083;-69
2022/11/06 01:59:27;;;;;;;11.32;6.65;;;9.90;99.90;;;;;;5029139;28;20487;-69
2022/11/06 02:01:53;;;;;;;10.10;6.13;;;9.90;99.90;;;;;;5031029;28;20030;-69
2022/11/06 02:04:23;;;;;;;11.98;6.53;;;9.90;99.90;;;;;;5029710;28;20042;-69
2022/11/06 02:06:49;;;;;;;11.45;5.93;;;9.90;99.90;;;;;;5027111;28;20037;-69
2022/11/06 02:09:15;;;;;;;12.07;5.95;;;9.90;99.90;;;;;;5027619;28;20048;-69
2022/11/06 02:11:44;;;;;;;11.15;6.25;;;9.90;99.90;;;;;;5030482;28;20049;-69
2022/11/06 02:14:12;;;;;;;9.30;6.00;;;9.90;99.90;;;;;;5027878;28;20487;-69
2022/11/06 02:17:05;;;;;;;11.40;6.97;;;9.90;99.90;;;;;;5026533;28;20529;-69
2022/11/06 02:19:45;;;;;;;12.73;6.55;;;9.90;99.90;;;;;;5030710;28;20095;-69
2022/11/06 02:22:25;;;;;;;10.95;6.97;;;10.00;99.90;;;;;;5027157;28;20380;-69
2022/11/06 02:25:05;;;;;;;11.07;7.13;;;9.90;99.90;;;;;;5029728;28;20087;-68
2022/11/06 02:27:32;;;;;;;13.93;6.57;;;9.90;99.90;;;;;;5030877;28;20037;-68
2022/11/06 02:30:12;;;;;;;13.55;6.78;;;9.90;99.90;;;;;;5033375;28;20045;-68
2022/11/06 02:32:58;;;;;;;11.13;6.38;;;9.90;99.90;;;;;;5028852;28;20088;-68
2022/11/06 02:35:39;;;;;;;14.20;6.85;;;9.80;99.90;;;;;;5034452;28;20041;-69
2022/11/06 02:38:08;;;;;;;10.85;6.43;;;9.80;99.90;;;;;;5032331;28;20095;-69
2022/11/06 02:40:38;;;;;;;13.05;6.78;;;9.80;99.90;;;;;;5028348;28;20037;-69
2022/11/06 02:43:06;;;;;;;13.73;6.97;;;9.80;99.90;;;;;;5031907;28;20037;-69
2022/11/06 02:45:39;;;;;;;14.07;7.05;;;9.70;99.90;;;;;;5028674;28;20091;-69
2022/11/06 02:48:08;;;;;;;15.18;7.18;;;9.70;99.90;;;;;;5033354;28;20506;-69
2022/11/06 02:50:40;;;;;;;18.05;6.95;;;9.70;99.90;;;;;;5030410;28;20041;-69
2022/11/06 02:53:08;;;;;;;10.10;6.65;;;9.70;99.90;;;;;;5032746;28;20033;-69
2022/11/06 02:55:42;;;;;;;12.10;5.85;;;9.70;99.90;;;;;;5033110;28;20037;-69
2022/11/06 02:58:21;;;;;;;15.63;6.60;;;9.70;99.90;;;;;;5030639;28;20038;-69
2022/11/06 03:00:57;;;;;;;12.88;6.93;;;9.70;99.90;;;;;;5021716;28;20484;-69
2022/11/06 03:03:26;;;;;;;10.95;5.97;;;9.60;99.90;;;;;;5031303;28;20037;-69
2022/11/06 03:06:00;;;;;;;13.00;6.15;;;9.60;99.90;;;;;;5029519;28;20029;-69
2022/11/06 03:08:50;;;;;;;11.75;6.18;;;9.70;99.90;;;;;;5030010;28;20041;-69
2022/11/06 03:11:26;;;;;;;13.25;5.70;;;9.60;99.90;;;;;;5031698;28;20072;-69
2022/11/06 03:14:18;;;;;;;11.30;5.88;;;9.70;99.90;;;;;;5033298;28;20033;-69
2022/11/06 03:17:10;;;;;;;10.60;5.53;;;9.60;99.90;;;;;;5030010;28;20069;-69
2022/11/06 03:20:12;;;;;;;12.20;5.85;;;9.60;99.90;;;;;;5031589;28;20069;-69
2022/11/06 03:22:48;;;;;;;11.93;5.82;;;9.60;99.90;;;;;;5039436;28;20043;-69
2022/11/06 03:25:20;;;;;;;9.25;6.20;;;9.60;99.90;;;;;;5031659;28;20424;-69
2022/11/06 03:28:04;;;;;;;9.65;5.70;;;9.60;99.90;;;;;;5027888;28;20103;-69
2022/11/06 03:30:33;;;;;;;9.70;5.95;;;9.60;99.90;;;;;;5030935;28;20033;-69
2022/11/06 03:33:12;;;;;;;12.43;5.93;;;9.60;99.90;;;;;;5032319;28;20502;-69
2022/11/06 03:35:47;;;;;;;14.52;5.50;;;9.70;99.90;;;;;;5029380;28;20041;-69
2022/11/06 03:38:32;;;;;;;12.05;6.55;;;9.70;99.90;;;;;;5031055;28;20054;-69
2022/11/06 03:41:02;;;;;;;10.43;5.68;;;9.70;99.90;;;;;;5030317;28;20037;-69
2022/11/06 03:43:33;;;;;;;11.32;5.22;;;9.70;99.90;;;;;;5030865;28;20037;-68
2022/11/06 03:46:03;;;;;;;11.25;5.28;;;9.60;99.90;;;;;;5029304;28;20124;-69
2022/11/06 03:49:07;;;;;;;9.80;5.15;;;9.70;99.90;;;;;;5021530;28;20042;-69
2022/11/06 03:51:51;;;;;;;10.43;5.15;;;9.70;99.90;;;;;;4939863;29;20050;-69
2022/11/06 03:54:22;;;;;;;9.68;4.82;;;9.70;99.90;;;;;;5016390;28;20439;-68
2022/11/06 03:57:19;;;;;;;9.02;5.18;;;9.70;99.90;;;;;;5010823;28;20042;-68
2022/11/06 03:59:54;;;;;;;9.52;5.00;;;9.70;99.90;;;;;;5009135;28;20532;-68
2022/11/06 04:02:22;;;;;;;13.50;4.60;;;9.70;99.90;;;;;;5012653;28;20046;-68
2022/11/06 04:04:52;;;;;;;10.90;5.53;;;9.70;99.90;;;;;;5011905;28;20044;-69
2022/11/06 04:07:24;;;;;;;7.47;4.78;;;9.70;99.90;;;;;;5010604;28;20415;-69
2022/11/06 04:15:33;;;;;;;10.40;5.10;;;9.70;99.90;;;;;;5011607;28;20053;-69
2022/11/06 04:17:59;;;;;;;7.20;4.82;;;9.70;99.90;;;;;;5011271;28;20575;-69
2022/11/06 04:27:07;;;;;;;12.30;5.22;;;9.60;99.90;;;;;;5012064;28;20093;-69
2022/11/06 04:29:47;;;;;;;8.90;4.57;;;9.60;99.90;;;;;;5009430;28;20049;-69
2022/11/06 04:32:27;;;;;;;10.43;4.72;;;9.60;99.90;;;;;;5009405;28;20038;-69
2022/11/06 04:35:04;;;;;;;10.82;5.13;;;9.60;99.90;;;;;;5017757;28;20124;-69
2022/11/06 04:37:43;;;;;;;12.60;5.22;;;9.50;99.90;;;;;;5010412;28;20491;-69
2022/11/06 04:40:25;;;;;;;10.32;4.88;;;9.50;99.90;;;;;;5010224;28;20436;-69
2022/11/06 04:43:13;;;;;;;9.98;4.50;;;9.60;99.90;;;;;;5020868;28;20036;-69
2022/11/06 04:45:44;;;;;;;9.68;4.60;;;9.50;99.90;;;;;;5011553;28;20041;-69
2022/11/06 04:48:11;;;;;;;10.93;5.10;;;9.50;99.90;;;;;;5027391;28;20033;-69
2022/11/06 04:50:45;;;;;;;12.02;5.45;;;9.50;99.90;;;;;;5023895;28;20136;-69
2022/11/06 04:53:12;;;;;;;10.38;4.97;;;9.50;99.90;;;;;;5030651;28;20053;-69
2022/11/06 04:55:54;;;;;;;9.60;4.35;;;9.50;99.90;;;;;;5030864;28;20056;-70
2022/11/06 04:58:20;;;;;;;9.60;4.72;;;9.50;99.90;;;;;;5029895;28;20120;-68
2022/11/06 05:00:48;;;;;;;12.85;4.72;;;9.50;99.90;;;;;;5030476;28;20113;-69
2022/11/06 05:03:14;;;;;;;10.05;4.55;;;9.40;99.90;;;;;;5030451;28;20482;-69
2022/11/06 05:05:41;;;;;;;9.68;4.70;;;9.40;99.90;;;;;;5028543;28;20487;-68
2022/11/06 05:08:15;;;;;;;11.07;5.07;;;9.50;99.90;;;;;;5027685;28;20033;-69
2022/11/06 05:10:42;;;;;;;9.95;4.13;;;9.40;99.90;;;;;;5028843;28;20037;-69
2022/11/06 05:13:08;;;;;;;10.35;4.18;;;9.50;99.90;;;;;;5029928;28;20442;-69
2022/11/06 05:15:34;;;;;;;12.23;4.30;;;9.50;99.90;;;;;;5030041;28;20038;-69
2022/11/06 05:17:59;;;;;;;6.78;4.18;;;9.50;99.90;;;;;;5031457;28;20049;-68
2022/11/06 05:20:25;;;;;;;6.50;3.90;;;9.50;99.90;;;;;;5030397;28;20468;-68
2022/11/06 05:22:56;;;;;;;10.98;4.15;;;9.50;99.90;;;;;;5030524;28;20044;-69
2022/11/06 05:25:26;;;;;;;7.85;4.63;;;9.50;99.90;;;;;;5030662;28;20506;-69
2022/11/06 05:27:52;;;;;;;8.70;3.70;;;9.50;99.90;;;;;;5029218;28;20479;-69
2022/11/06 05:30:17;;;;;;;6.50;3.92;;;9.50;99.90;;;;;;5030087;28;20048;-68
2022/11/06 05:32:43;;;;;;;12.30;4.40;;;9.50;99.90;;;;;;5031511;28;20163;-69
2022/11/06 05:35:09;;;;;;;11.48;3.92;;;9.50;99.90;;;;;;5031643;28;20060;-69
2022/11/06 05:37:34;;;;;;;10.82;3.75;;;9.50;99.90;;;;;;5030337;28;20042;-68
2022/11/06 05:40:00;;;;;;;13.27;4.13;;;9.50;99.90;;;;;;5029896;28;20072;-69
2022/11/06 05:42:25;;;;;;;7.63;3.50;;;9.50;99.90;;;;;;5024824;28;20414;-68
2022/11/06 05:44:51;;;;;;;12.30;3.75;;;9.50;99.90;;;;;;5029166;28;20033;-68
2022/11/06 05:47:17;;;;;;;11.88;3.92;;;9.50;99.90;;;;;;5031148;28;20525;-68
2022/11/06 05:49:42;;;;;;;7.03;3.60;;;9.50;99.90;;;;;;5031514;28;20049;-68
2022/11/06 05:52:08;;;;;;;9.65;3.22;;;9.50;99.90;;;;;;5012220;28;20163;-68
2022/11/06 05:54:33;;;;;;;10.30;3.40;;;9.50;99.90;;;;;;5011328;28;20143;-68
2022/11/06 05:56:59;;;;;;;12.68;3.45;;;9.50;99.90;;;;;;5010999;28;20396;-68
2022/11/06 05:59:24;;;;;;;5.97;3.40;;;9.50;99.90;;;;;;5006817;28;20100;-68
2022/11/06 06:01:50;;;;;;;8.35;3.53;;;9.50;99.90;;;;;;5011746;28;20030;-68
2022/11/06 06:04:16;;;;;;;9.85;3.67;;;9.60;99.90;;;;;;5014089;28;20033;-68
2022/11/06 06:06:42;;;;;;;8.57;4.05;;;9.50;99.90;;;;;;5014138;28;20539;-68
2022/11/06 06:09:07;;;;;;;10.18;3.47;;;9.50;99.90;;;;;;5015126;28;20124;-68
2022/11/06 06:11:33;;;;;;;12.70;3.85;;;9.60;99.90;;;;;;5015783;28;20407;-68
2022/11/06 06:13:59;;;;;;;10.50;3.30;;;9.60;99.90;;;;;;5011715;28;20084;-68
2022/11/06 06:16:25;;;;;;;7.82;3.35;;;9.60;99.90;;;;;;5014379;28;20045;-68
2022/11/06 06:18:50;;;;;;;7.47;3.78;;;9.60;99.90;;;;;;5014458;28;20053;-68
2022/11/06 06:21:16;;;;;;;9.43;3.33;;;9.60;99.90;;;;;;5013655;28;20053;-68
2022/11/06 06:23:42;;;;;;;6.82;3.03;;;9.60;99.90;;;;;;5013448;28;20059;-68
2022/11/06 06:26:08;;;;;;;12.40;3.38;;;9.60;99.90;;;;;;5015018;28;20546;-68
2022/11/06 06:28:34;;;;;;;10.15;3.45;;;9.60;99.90;;;;;;5012999;28;20038;-68
2022/11/06 06:31:04;;;;;;;6.07;3.10;;;9.60;99.90;;;;;;4995984;28;20042;-68
2022/11/06 06:33:30;;;;;;;11.07;3.10;;;9.70;99.90;;;;;;5010358;28;20476;-68
2022/11/06 06:35:56;;;;;;;8.30;3.20;;;9.60;99.90;;;;;;5008039;28;20038;-68
2022/11/06 06:38:22;;;;;;;7.82;3.40;;;9.70;99.90;;;;;;5011393;28;20384;-68
2022/11/06 06:40:47;;;;;;;8.90;3.13;;;9.60;99.90;;;;;;5019819;28;20030;-68
2022/11/06 06:43:13;;;;;;;9.57;3.13;;;9.70;99.90;;;;;;5012740;28;20137;-68
2022/11/06 06:45:38;;;;;;;8.52;3.35;;;9.70;99.90;;;;;;5013868;28;20041;-68
2022/11/06 06:48:05;;;;;;;7.00;3.10;;;9.70;99.90;;;;;;5028991;28;20041;-68
2022/11/06 06:50:31;;;;;;;10.30;3.00;;;9.70;99.90;;;;;;5030140;28;20029;-68
2022/11/06 06:52:57;;;;;;;8.57;3.20;;;9.60;99.90;;;;;;5032756;28;20422;-68
2022/11/06 06:55:24;;;;;;;7.78;3.10;;;9.70;99.90;;;;;;5032329;28;20045;-68
2022/11/06 06:57:55;;;;;;;7.40;3.00;;;9.70;99.90;;;;;;5033334;28;20048;-68
2022/11/06 07:00:21;;;;;;;9.20;3.22;;;9.70;99.90;;;;;;5033439;28;20048;-68
2022/11/06 07:02:46;;;;;;;5.65;2.65;;;9.60;99.90;;;;;;5032965;28;20037;-68
2022/11/06 07:05:12;;;;;;;11.55;2.90;;;9.70;99.90;;;;;;5030137;28;20230;-68
2022/11/06 07:07:38;;;;;;;8.70;2.85;;;9.70;99.90;;;;;;5032320;28;20045;-67
2022/11/06 07:10:04;;;;;;;9.57;2.95;;;9.70;99.90;;;;;;5030837;28;20038;-68
2022/11/06 07:12:29;;;;;;;6.03;3.05;;;9.70;99.90;;;;;;5031809;28;20038;-68
2022/11/06 07:14:55;;;;;;;9.05;2.97;;;9.70;99.90;;;;;;5032930;28;20487;-68
2022/11/06 07:17:20;;;;;;;9.45;3.05;;;9.70;99.90;;;;;;5032279;28;20099;-68
2022/11/06 07:19:46;;;;;;;6.63;2.58;;;9.70;99.90;;;;;;5031770;28;20117;-68
2022/11/06 07:22:12;;;;;;;6.82;3.00;;;9.70;99.90;;;;;;5032592;28;20038;-68
2022/11/06 07:24:38;;;;;;;7.47;2.70;;;9.80;99.90;;;;;;5030050;28;20032;-68
2022/11/06 07:27:04;;;;;;;8.48;2.78;;;9.70;99.90;;;;;;5030851;28;20116;-68
2022/11/06 07:29:29;;;;;;;6.00;3.10;;;9.70;99.90;;;;;;5029789;28;20527;-68
2022/11/06 07:31:55;;;;;;;8.05;2.83;;;9.80;99.90;;;;;;5031520;28;20030;-68
2022/11/06 07:34:20;;;;;;;6.55;2.50;;;9.90;99.90;;;;;;5030720;28;20515;-67
2022/11/06 07:36:46;;;;;;;5.07;2.40;;;9.80;99.90;;;;;;5032205;28;20069;-68
2022/11/06 07:39:12;;;;;;;5.10;1.80;;;9.90;99.90;;;;;;5023824;28;20111;-69
2022/11/06 07:41:37;;;;;;;9.20;2.53;;;9.90;99.90;;;;;;5027244;28;20055;-69
2022/11/06 07:44:03;;;;;;;7.50;2.35;;;9.90;99.90;;;;;;5030696;28;20259;-69
2022/11/06 07:46:29;;;;;;;8.82;2.63;;;10.00;99.90;;;;;;5032118;28;20037;-69
2022/11/06 07:48:55;;;;;;;8.15;1.88;;;10.00;99.90;;;;;;5001078;28;20037;-68
2022/11/06 07:51:20;;;;;;;9.68;2.50;;;10.00;99.90;;;;;;5031396;28;20064;-69
2022/11/06 07:53:46;;;;;;;5.50;3.05;;;10.00;99.90;;;;;;5021149;28;20041;-69
2022/11/06 07:56:12;;;;;;;7.05;2.67;;;10.10;99.90;;;;;;5031457;28;20403;-68
2022/11/06 07:58:37;;;;;;;10.43;2.75;;;10.00;99.90;;;;;;5025470;28;20045;-68
2022/11/06 08:01:03;;;;;;;5.28;2.15;;;10.10;99.90;;;;;;5029809;28;20115;-68
2022/11/06 08:03:29;;;;;;;8.18;2.38;;;10.10;99.90;;;;;;5032638;28;20044;-68
2022/11/06 08:05:56;;;;;;;6.47;2.35;;;10.10;99.90;;;;;;5029388;28;20036;-68
2022/11/06 08:08:22;;;;;;;8.65;2.60;;;10.10;99.90;;;;;;5027765;28;20041;-68
2022/11/06 08:10:50;;;;;;;9.30;2.67;;;10.10;99.90;;;;;;5026162;28;20600;-69
2022/11/06 08:13:17;;;;;;;4.88;2.13;;;10.20;99.90;;;;;;5041600;28;20041;-69
2022/11/06 08:15:43;;;;;;;6.85;2.92;;;10.30;99.90;;;;;;5031686;28;20086;-69
2022/11/06 08:18:10;;;;;;;8.60;2.50;;;10.30;99.90;;;;;;5029232;28;20356;-69
2022/11/06 08:20:37;;;;;;;6.32;2.42;;;10.30;99.90;;;;;;5030163;28;20033;-69
2022/11/06 08:23:04;;;;;;;7.15;2.50;;;10.40;99.90;;;;;;5039280;28;20045;-69
2022/11/06 08:25:31;;;;;;;10.00;2.30;;;10.40;99.90;;;;;;5025644;28;20037;-69
2022/11/06 08:27:59;;;;;;;6.85;2.55;;;10.50;99.90;;;;;;5023730;28;20045;-69
2022/11/06 08:30:26;;;;;;;8.80;2.42;;;10.50;99.90;;;;;;5029173;28;20053;-69
2022/11/06 08:32:51;;;;;;;11.05;2.40;;;10.50;99.90;;;;;;5033233;28;20498;-69
2022/11/06 08:35:17;;;;;;;5.75;2.30;;;10.50;99.90;;;;;;5033759;28;20082;-69
2022/11/06 08:37:43;;;;;;;7.97;2.22;;;10.50;99.90;;;;;;5024724;28;20072;-70
2022/11/06 08:40:09;;;;;;;8.00;2.30;;;10.60;99.90;;;;;;5025403;28;20060;-70
2022/11/06 08:42:35;;;;;;;7.32;2.20;;;10.50;99.90;;;;;;5031402;28;20040;-69
2022/11/06 08:45:01;;;;;;;8.68;2.47;;;10.60;99.90;;;;;;5031723;28;20026;-70
2022/11/06 08:47:26;;;;;;;5.85;1.80;;;10.60;99.90;;;;;;5019861;28;20403;-70
2022/11/06 08:49:52;;;;;;;6.70;2.45;;;10.60;99.90;;;;;;5008918;28;20069;-70
2022/11/06 08:52:17;;;;;;;5.85;1.98;;;10.50;99.90;;;;;;5010994;28;20056;-69
2022/11/06 08:54:43;;;;;;;9.23;2.58;;;10.60;99.90;;;;;;5009946;28;20080;-69
2022/11/06 08:57:08;;;;;;;4.97;1.90;;;10.70;99.90;;;;;;5010510;28;20121;-69
2022/11/06 08:59:34;;;;;;;6.57;2.20;;;10.70;99.90;;;;;;5009254;28;20060;-69
2022/11/06 09:02:00;;;;;;;7.93;3.03;;;10.70;99.90;;;;;;5018644;28;20112;-69
2022/11/06 09:04:25;;;;;;;9.38;2.10;;;10.80;99.90;;;;;;5009291;28;20042;-69
2022/11/06 09:06:51;;;;;;;6.72;2.80;;;10.80;99.90;;;;;;5011561;28;20026;-69
2022/11/06 09:09:17;;;;;;;8.73;2.53;;;10.90;99.90;;;;;;5008672;28;20042;-69
2022/11/06 09:11:42;;;;;;;6.72;2.03;;;11.00;99.90;;;;;;5009290;28;20034;-70
2022/11/06 09:14:08;;;;;;;9.07;2.60;;;11.00;99.90;;;;;;5020506;28;20037;-69
2022/11/06 09:16:33;;;;;;;5.38;1.88;;;11.00;99.90;;;;;;5018015;28;20041;-68
2022/11/06 09:18:59;;;;;;;7.70;2.53;;;11.10;99.90;;;;;;5011811;28;20081;-69
2022/11/06 09:21:25;;;;;;;6.35;2.00;;;11.10;99.90;;;;;;5010896;28;20373;-69
2022/11/06 09:23:50;;;;;;;9.35;2.38;;;11.20;99.90;;;;;;5010633;28;20046;-69
2022/11/06 09:26:16;;;;;;;5.43;2.25;;;11.10;99.90;;;;;;5017873;28;20070;-69
2022/11/06 09:28:42;;;;;;;6.07;2.00;;;11.20;99.90;;;;;;5010596;28;20065;-69
2022/11/06 09:31:08;;;;;;;7.13;2.13;;;11.20;99.90;;;;;;5007132;28;20037;-69
2022/11/06 09:33:34;;;;;;;8.75;2.60;;;11.20;99.90;;;;;;5009285;28;20080;-69
2022/11/06 09:36:03;;;;;;;5.97;2.00;;;11.30;99.90;;;;;;5010506;28;20038;-69
2022/11/06 09:38:29;;;;;;;5.55;2.05;;;11.30;99.90;;;;;;4997016;28;20099;-69
2022/11/06 09:40:58;;;;;;;10.60;2.45;;;11.40;99.90;;;;;;5011367;28;20034;-70
2022/11/06 09:44:02;;;;;;;4.47;2.25;;;11.30;99.90;;;;;;5009545;28;20069;-70
2022/11/06 09:46:33;;;;;;;8.60;2.20;;;11.30;99.90;;;;;;4969521;28;20041;-67
2022/11/06 09:49:18;;;;;;;6.90;2.20;;;11.30;99.90;;;;;;5025725;28;20134;-69
2022/11/06 09:52:02;;;;;;;8.10;2.15;;;11.30;99.90;;;;;;5023789;28;20083;-68
2022/11/06 09:54:34;;;;;;;4.70;1.83;;;11.40;99.90;;;;;;5028195;28;20043;-70
2022/11/06 09:57:08;;;;;;;3.30;1.90;;;11.40;99.90;;;;;;5023710;28;20041;-69
2022/11/06 09:59:36;;;;;;;7.65;1.73;;;11.40;99.90;;;;;;5023736;28;20041;-70
2022/11/06 10:02:10;;;;;;;7.13;1.80;;;11.50;99.90;;;;;;5027182;28;20030;-69
2022/11/06 10:04:50;;;;;;;9.48;1.98;;;11.50;99.90;;;;;;5025497;28;20049;-70
2022/11/06 10:07:28;;;;;;;6.32;2.10;;;11.50;99.90;;;;;;5027492;28;20048;-70
2022/11/06 10:09:54;;;;;;;7.53;2.13;;;11.50;99.90;;;;;;5024717;28;20041;-70
2022/11/06 10:12:32;;;;;;;5.95;2.00;;;11.50;99.90;;;;;;5022807;28;20499;-70
2022/11/06 10:15:19;;;;;;;6.38;2.05;;;11.50;99.90;;;;;;5028772;28;20037;-70
2022/11/06 10:18:33;;;;;;;7.38;2.30;;;11.60;99.90;;;;;;5023377;28;20045;-70
2022/11/06 10:21:21;;;;;;;5.13;1.85;;;11.60;99.90;;;;;;4991784;28;20088;-69
2022/11/06 10:23:55;;;;;;;5.05;2.15;;;11.70;99.90;;;;;;5026555;28;20068;-69
2022/11/06 10:26:41;;;;;;;9.30;2.17;;;11.80;99.90;;;;;;5027199;28;20088;-70
2022/11/06 10:29:18;;;;;;;4.82;1.58;;;11.80;99.90;;;;;;5026603;28;20061;-70
2022/11/06 10:31:47;;;;;;;6.75;2.15;;;11.90;99.90;;;;;;5026187;28;20045;-70
2022/11/06 10:34:15;;;;;;;4.65;1.63;;;12.00;99.90;;;;;;5028846;28;20041;-69
2022/11/06 10:36:53;;;;;;;6.38;2.05;;;12.10;99.90;;;;;;5027065;28;20044;-69
2022/11/06 10:39:31;;;;;;;4.25;2.00;;;12.10;99.90;;;;;;5027734;28;20038;-69
2022/11/06 10:42:29;;;;;;;5.80;1.95;;;12.30;99.90;;;;;;5028280;28;20044;-69
2022/11/06 10:45:00;;;;;;;6.28;1.70;;;12.40;99.90;;;;;;5028177;28;20037;-69
2022/11/06 10:47:31;;;;;;;4.78;1.98;;;12.50;99.90;;;;;;5022527;28;20159;-68
2022/11/06 10:50:02;;;;;;;3.88;1.58;;;12.50;99.90;;;;;;5030244;28;20060;-70
2022/11/06 10:52:40;;;;;;;;;;;12.40;99.90;;;;;;5026622;28;20274;-68
2022/11/06 10:55:39;;;;;;;5.82;2.00;;;12.40;99.90;;;;;;5029107;28;19960;-68
2022/11/06 10:58:07;;;;;;;6.35;2.20;;;12.40;99.90;;;;;;5023662;28;20046;-69
2022/11/06 11:00:33;;;;;;;7.85;1.60;;;12.30;99.90;;;;;;5030896;28;20030;-69
2022/11/06 11:03:01;;;;;;;5.35;1.83;;;12.40;99.90;;;;;;5032802;28;20041;-69
2022/11/06 11:05:37;;;;;;;7.32;1.63;;;12.50;99.90;;;;;;5029865;28;20033;-69
2022/11/06 11:08:03;;;;;;;5.47;1.65;;;12.50;99.90;;;;;;5029617;28;20041;-69
2022/11/06 11:10:31;;;;;;;3.50;1.50;;;12.50;99.90;;;;;;5032385;28;20045;-69
2022/11/06 11:12:59;;;;;;;6.72;1.60;;;12.60;99.90;;;;;;5031551;28;20092;-69
2022/11/06 11:15:27;;;;;;;7.45;1.52;;;12.60;99.90;;;;;;5028369;28;20060;-69
2022/11/06 11:18:11;;;;;;;6.47;1.80;;;12.70;99.90;;;;;;5008639;28;20053;-69
2022/11/06 11:20:45;;;;;;;3.92;1.77;;;12.70;99.90;;;;;;5025624;28;20044;-69
2022/11/06 11:23:23;;;;;;;5.47;1.90;;;12.70;99.90;;;;;;5033376;28;20068;-68
2022/11/06 11:25:54;;;;;;;6.68;1.88;;;12.90;99.90;;;;;;5032561;28;20029;-68
2022/11/06 11:28:29;;;;;;;4.10;1.40;;;12.90;99.90;;;;;;5025158;28;20041;-68
2022/11/06 11:31:10;;;;;;;10.05;1.48;;;13.00;99.90;;;;;;5031537;28;20533;-70
2022/11/06 11:33:39;;;;;;;5.85;1.80;;;12.90;99.90;;;;;;5023855;28;20048;-70
2022/11/06 11:36:06;;;;;;;3.67;1.65;;;12.90;99.90;;;;;;5030396;28;20069;-69
2022/11/06 11:38:34;;;;;;;7.05;1.60;;;12.90;99.90;;;;;;5025671;28;20104;-69
2022/11/06 11:41:12;;;;;;;5.00;1.48;;;12.90;99.90;;;;;;5032234;28;20117;-69
2022/11/06 11:43:39;;;;;;;3.40;1.40;;;13.00;99.90;;;;;;5028523;28;20033;-69
2022/11/06 11:46:08;;;;;;;6.15;1.33;;;13.00;99.90;;;;;;5020951;28;20427;-68
2022/11/06 11:48:57;;;;;;;6.82;1.65;;;13.00;99.90;;;;;;5022869;28;20065;-69
2022/11/06 11:51:28;;;;;;;6.38;1.58;;;13.00;99.90;;;;;;5028309;28;20041;-69
2022/11/06 11:54:00;;;;;;;6.68;2.40;;;13.00;99.90;;;;;;5027585;28;20132;-69
2022/11/06 11:56:27;;;;;;;7.80;1.70;;;12.90;99.90;;;;;;5025397;28;20053;-69
2022/11/06 11:58:57;;;;;;;8.10;1.80;;;12.90;99.90;;;;;;5029270;28;20068;-70
2022/11/06 12:01:37;;;;;;;6.53;1.83;;;12.80;99.90;;;;;;5031026;28;20041;-69
2022/11/06 12:04:28;;;;;;;3.13;1.52;;;12.80;99.90;;;;;;5029552;28;20041;-69
2022/11/06 12:07:04;;;;;;;5.75;1.67;;;12.80;99.90;;;;;;5032354;28;20179;-69
2022/11/06 12:09:41;;;;;;;9.60;2.13;;;12.70;99.90;;;;;;5026465;28;20245;-69
2022/11/06 12:12:21;;;;;;;10.27;2.28;;;12.70;99.90;;;;;;5024407;28;20533;-70
2022/11/06 12:15:04;;;;;;;7.18;2.00;;;12.80;99.90;;;;;;5023869;28;20088;-69
2022/11/06 12:17:32;;;;;;;4.80;1.73;;;12.80;99.90;;;;;;5027219;28;20041;-70
2022/11/06 12:20:00;;;;;;;5.22;1.50;;;12.80;99.90;;;;;;5029771;28;20040;-70
2022/11/06 12:22:32;;;;;;;4.25;1.58;;;12.80;99.90;;;;;;5025005;28;20087;-70
2022/11/06 12:25:20;;;;;;;8.73;2.03;;;12.90;99.90;;;;;;5030384;28;20034;-70
2022/11/06 12:27:50;;;;;;;8.07;1.55;;;12.80;99.90;;;;;;5018916;28;20034;-70
2022/11/06 12:30:17;;;;;;;6.45;1.90;;;12.80;99.90;;;;;;5029330;28;20049;-69
2022/11/06 12:33:01;;;;;;;6.93;2.00;;;12.80;99.90;;;;;;5029677;28;20052;-70
2022/11/06 12:35:29;;;;;;;6.20;2.45;;;12.80;99.90;;;;;;5028969;28;20479;-70
2022/11/06 12:38:31;;;;;;;6.45;1.90;;;12.90;99.90;;;;;;5029701;28;20041;-70
2022/11/06 12:41:09;;;;;;;4.80;1.70;;;12.90;99.90;;;;;;5031119;28;20073;-70
2022/11/06 12:43:43;;;;;;;5.70;1.90;;;12.90;99.90;;;;;;5024538;28;20591;-69
2022/11/06 12:46:31;;;;;;;8.23;2.00;;;12.90;99.90;;;;;;5028074;28;20030;-68
2022/11/06 12:49:21;;;;;;;7.90;1.90;;;12.80;99.90;;;;;;5009567;28;20057;-68
2022/11/06 12:52:11;;;;;;;4.93;1.60;;;12.80;99.90;;;;;;5004449;28;20045;-68
2022/11/06 12:55:18;;;;;;;7.82;2.08;;;12.80;99.90;;;;;;5011789;28;20034;-69
2022/11/06 12:57:56;;;;;;;3.63;1.60;;;12.70;99.90;;;;;;5009459;28;20073;-69
2022/11/06 13:00:25;;;;;;;3.53;1.50;;;12.70;99.90;;;;;;5009341;28;20053;-68
2022/11/06 13:03:32;;;;;;;5.82;2.03;;;12.70;99.90;;;;;;5007808;28;20048;-68
2022/11/06 13:06:07;;;;;;;4.38;1.70;;;12.70;99.90;;;;;;5007543;28;20037;-68
2022/11/06 13:08:55;;;;;;;6.07;2.00;;;12.70;99.90;;;;;;5010020;28;20044;-68
2022/11/06 13:11:39;;;;;;;4.40;1.30;;;12.70;99.90;;;;;;4991854;28;20500;-68
2022/11/06 13:14:25;;;;;;;8.52;1.63;;;12.70;99.90;;;;;;5005838;28;20399;-68
2022/11/06 13:17:04;;;;;;;2.92;1.33;;;12.60;99.90;;;;;;5005756;28;20604;-68
2022/11/06 13:19:41;;;;;;;4.97;1.52;;;12.70;99.90;;;;;;4989408;28;20084;-68
2022/11/06 13:22:18;;;;;;;3.28;1.55;;;12.70;99.90;;;;;;5011109;28;20431;-69
2022/11/06 13:24:59;;;;;;;4.93;1.70;;;12.60;99.90;;;;;;5011952;28;20044;-69